createdAt,value
2023-03-24T00:03:02.680Z,12.99
2023-03-24T00:07:06.121Z,12.94
2023-03-24T00:11:11.708Z,12.94
2023-03-24T00:15:19.099Z,12.90
2023-03-24T00:19:23.671Z,12.88
2023-03-24T00:23:28.037Z,12.90
2023-03-24T00:27:36.775Z,12.87
2023-03-24T00:31:40.611Z,12.83
2023-03-24T00:35:45.873Z,12.78
2023-03-24T00:39:50.040Z,12.73
2023-03-24T00:43:56.342Z,12.68
2023-03-24T00:47:59.924Z,12.62
2023-03-24T00:52:10.268Z,12.58
2023-03-24T00:56:15.625Z,12.53
2023-03-24T01:00:21.285Z,12.48
2023-03-24T01:04:26.338Z,12.43
2023-03-24T01:08:30.966Z,12.36
2023-03-24T01:12:36.966Z,12.25
2023-03-24T01:16:40.935Z,12.16
2023-03-24T01:20:46.585Z,12.15
2023-03-24T01:24:53.148Z,12.16
2023-03-24T01:28:56.959Z,12.14
2023-03-24T01:33:00.592Z,12.08
2023-03-24T01:37:04.593Z,11.99
2023-03-24T01:41:09.752Z,11.95
2023-03-24T01:45:45.657Z,11.91
2023-03-24T01:49:53.857Z,11.88
2023-03-24T01:54:01.257Z,11.86
2023-03-24T01:58:07.356Z,11.86
2023-03-24T02:02:30.075Z,11.88
2023-03-24T02:06:36.262Z,11.88
2023-03-24T02:10:40.399Z,11.84
2023-03-24T02:14:45.264Z,11.78
2023-03-24T02:18:57.201Z,11.74
2023-03-24T02:23:31.063Z,11.70
2023-03-24T02:27:55.118Z,11.69
2023-03-24T02:32:24.448Z,11.71
2023-03-24T02:36:58.415Z,11.73
2023-03-24T02:41:07.998Z,11.73
2023-03-24T02:45:25.056Z,11.75
2023-03-24T02:49:36.993Z,11.74
2023-03-24T02:53:52.722Z,11.72
2023-03-24T02:58:08.596Z,11.68
2023-03-24T03:02:28.709Z,11.67
2023-03-24T03:06:39.730Z,11.66
2023-03-24T03:10:46.540Z,11.61
2023-03-24T03:14:56.207Z,11.60
2023-03-24T03:19:03.408Z,11.55
2023-03-24T03:23:13.395Z,11.54
2023-03-24T03:27:20.532Z,11.51
2023-03-24T03:31:31.035Z,11.49
2023-03-24T03:35:38.857Z,11.43
2023-03-24T03:39:48.658Z,11.40
2023-03-24T03:43:53.325Z,11.37
2023-03-24T03:47:58.299Z,11.34
2023-03-24T03:52:01.691Z,11.31
2023-03-24T03:56:05.510Z,11.25
2023-03-24T04:00:20.543Z,11.23
2023-03-24T04:05:15.114Z,11.17
2023-03-24T04:09:36.914Z,11.19
2023-03-24T04:13:53.991Z,11.25
2023-03-24T04:18:27.265Z,11.30
2023-03-24T04:22:50.064Z,11.31
2023-03-24T04:27:00.770Z,11.31
2023-03-24T04:31:14.516Z,11.33
2023-03-24T04:35:26.444Z,11.31
2023-03-24T04:39:59.102Z,11.29
2023-03-24T04:44:03.398Z,11.30
2023-03-24T04:48:12.127Z,11.28
2023-03-24T04:52:41.404Z,11.28
2023-03-24T04:56:49.599Z,11.29
2023-03-24T05:00:59.645Z,11.29
2023-03-24T05:05:06.624Z,11.21
2023-03-24T05:09:14.473Z,11.11
2023-03-24T05:13:19.111Z,11.05
2023-03-24T05:17:26.546Z,11.03
2023-03-24T05:21:31.875Z,11.03
2023-03-24T05:25:36.675Z,11.05
2023-03-24T05:29:41.540Z,11.04
2023-03-24T05:33:47.336Z,11.05
2023-03-24T05:37:53.852Z,11.03
2023-03-24T05:41:57.083Z,10.97
2023-03-24T05:46:01.613Z,10.95
2023-03-24T05:50:09.633Z,10.93
2023-03-24T05:54:13.290Z,10.93
2023-03-24T05:58:19.978Z,10.94
2023-03-24T06:02:28.685Z,10.96
2023-03-24T06:06:38.347Z,10.96
2023-03-24T06:10:41.756Z,10.95
2023-03-24T06:14:45.574Z,10.97
2023-03-24T06:18:52.815Z,11.03
2023-03-24T06:23:16.742Z,11.11
2023-03-24T06:27:46.231Z,11.22
2023-03-24T06:31:50.214Z,11.29
2023-03-24T06:35:55.735Z,11.34
2023-03-24T06:39:58.795Z,11.42
2023-03-24T06:44:05.974Z,11.50
2023-03-24T06:48:09.895Z,11.58
2023-03-24T06:52:14.578Z,11.64
2023-03-24T06:56:21.106Z,11.71
2023-03-24T07:00:30.282Z,11.82
2023-03-24T07:04:43.967Z,11.88
2023-03-24T07:08:55.353Z,11.92
2023-03-24T07:13:03.302Z,12.00
2023-03-24T07:17:08.574Z,12.11
2023-03-24T07:21:20.536Z,12.22
2023-03-24T07:25:28.077Z,12.21
2023-03-24T07:29:38.309Z,12.26
2023-03-24T07:33:55.197Z,12.37
2023-03-24T07:37:59.328Z,12.44
2023-03-24T07:42:03.995Z,12.44
2023-03-24T07:46:25.437Z,12.55
2023-03-24T07:50:29.283Z,12.66
2023-03-24T07:54:32.794Z,12.72
2023-03-24T07:58:37.253Z,12.80
2023-03-24T08:03:01.338Z,12.90
2023-03-24T08:07:22.993Z,12.88
2023-03-24T08:11:25.970Z,12.94
2023-03-24T08:15:30.468Z,13.06
2023-03-24T08:19:33.549Z,13.10
2023-03-24T08:23:37.119Z,13.13
2023-03-24T08:27:43.462Z,13.22
2023-03-24T08:31:48.005Z,13.28
2023-03-24T08:35:51.649Z,13.35
2023-03-24T08:39:58.778Z,13.49
2023-03-24T08:44:06.246Z,13.61
2023-03-24T08:48:12.072Z,13.68
2023-03-24T08:52:15.130Z,13.81
2023-03-24T08:56:18.582Z,13.91
2023-03-24T09:00:22.699Z,13.99
2023-03-24T09:04:27.491Z,14.07
2023-03-24T09:08:31.583Z,14.18
2023-03-24T09:12:34.679Z,14.32
2023-03-24T09:16:38.038Z,14.46
2023-03-24T09:20:42.720Z,14.56
2023-03-24T09:24:45.767Z,14.60
2023-03-24T09:28:48.819Z,14.68
2023-03-24T09:32:51.992Z,14.72
2023-03-24T09:36:56.527Z,14.85
2023-03-24T09:41:03.010Z,14.90
2023-03-24T09:45:13.200Z,14.98
2023-03-24T09:49:23.612Z,15.07
2023-03-24T09:53:37.033Z,15.16
2023-03-24T09:57:42.301Z,15.24
2023-03-24T10:01:45.610Z,15.30
2023-03-24T10:05:55.386Z,15.39
2023-03-24T10:10:01.909Z,15.45
2023-03-24T10:14:15.339Z,15.49
2023-03-24T10:18:31.946Z,15.64
2023-03-24T10:22:41.379Z,15.81
2023-03-24T10:26:54.139Z,15.89
2023-03-24T10:31:01.511Z,15.93
2023-03-24T10:35:10.065Z,15.93
2023-03-24T10:39:19.996Z,15.96
2023-03-24T10:43:28.268Z,15.99
2023-03-24T10:47:33.992Z,16.04
2023-03-24T10:51:37.762Z,16.11
2023-03-24T10:55:43.436Z,16.14
2023-03-24T10:59:56.075Z,16.20
2023-03-24T11:04:04.516Z,16.27
2023-03-24T11:08:26.002Z,16.39
2023-03-24T11:12:31.185Z,16.51
2023-03-24T11:16:39.612Z,16.57
2023-03-24T11:20:45.972Z,16.61
2023-03-24T11:24:51.999Z,16.67
2023-03-24T11:28:58.157Z,16.73
2023-03-24T11:33:05.006Z,16.77
2023-03-24T11:37:13.261Z,16.85
2023-03-24T11:41:22.697Z,16.91
2023-03-24T11:45:35.689Z,16.99
2023-03-24T11:49:46.349Z,17.12
2023-03-24T11:53:52.747Z,17.24
2023-03-24T11:57:59.331Z,17.27
2023-03-24T12:02:13.246Z,17.36
2023-03-24T12:06:31.714Z,17.45
2023-03-24T12:10:46.006Z,17.53
2023-03-24T12:15:07.814Z,17.71
2023-03-24T12:19:45.151Z,17.80
2023-03-24T12:23:58.761Z,17.90
2023-03-24T12:28:20.011Z,18.05
2023-03-24T12:32:49.510Z,18.14
2023-03-24T12:37:01.344Z,18.18
2023-03-24T12:41:40.601Z,18.20
2023-03-24T12:45:49.622Z,18.32
2023-03-24T12:50:11.287Z,18.38
2023-03-24T12:54:27.597Z,18.46
2023-03-24T12:58:41.545Z,18.55
2023-03-24T13:02:49.985Z,18.55
2023-03-24T13:07:00.833Z,18.58
2023-03-24T13:11:14.901Z,18.62
2023-03-24T13:15:31.643Z,18.67
2023-03-24T13:19:38.719Z,18.74
2023-03-24T13:23:56.739Z,18.78
2023-03-24T13:28:06.347Z,18.81
2023-03-24T13:32:17.315Z,18.81
2023-03-24T13:36:43.026Z,18.84
2023-03-24T13:40:51.900Z,18.87
2023-03-24T13:44:54.792Z,18.92
2023-03-24T13:49:00.278Z,18.94
2023-03-24T13:53:14.054Z,18.97
2023-03-24T13:57:20.543Z,18.98
2023-03-24T14:01:35.495Z,18.86
2023-03-24T14:05:57.693Z,18.83
2023-03-24T14:10:03.689Z,18.86
2023-03-24T14:14:08.709Z,18.89
2023-03-24T14:18:43.345Z,18.94
2023-03-24T14:22:48.553Z,18.95
2023-03-24T14:26:51.597Z,18.96
2023-03-24T14:31:15.515Z,18.96
2023-03-24T14:35:37.164Z,18.89
2023-03-24T14:39:42.952Z,18.91
2023-03-24T14:44:03.776Z,18.91
2023-03-24T14:48:18.104Z,18.93
2023-03-24T14:52:26.259Z,18.92
2023-03-24T14:56:36.128Z,18.86
2023-03-24T15:00:51.711Z,18.83
2023-03-24T15:05:26.103Z,18.78
2023-03-24T15:09:30.552Z,18.73
2023-03-24T15:13:37.329Z,18.64
2023-03-24T15:17:43.444Z,18.60
2023-03-24T15:21:48.576Z,18.55
2023-03-24T15:25:54.702Z,18.48
2023-03-24T15:30:01.096Z,18.28
2023-03-24T15:34:24.066Z,18.13
2023-03-24T15:38:31.528Z,17.97
2023-03-24T15:42:42.541Z,17.84
2023-03-24T15:46:46.050Z,17.73
2023-03-24T15:51:00.400Z,17.47
2023-03-24T15:55:08.767Z,17.12
2023-03-24T15:59:16.151Z,16.84
2023-03-24T16:03:19.310Z,16.60
2023-03-24T16:07:29.665Z,16.42
2023-03-24T16:11:32.834Z,16.28
2023-03-24T16:15:37.323Z,16.19
2023-03-24T16:19:40.546Z,16.05
2023-03-24T16:23:44.145Z,15.97
2023-03-24T16:27:47.183Z,15.98
2023-03-24T16:31:53.265Z,15.91
2023-03-24T16:35:56.289Z,15.87
2023-03-24T16:40:01.153Z,15.83
2023-03-24T16:44:05.397Z,15.79
2023-03-24T16:48:10.868Z,15.74
2023-03-24T16:52:14.026Z,15.71
2023-03-24T16:56:19.667Z,15.61
2023-03-24T17:00:23.697Z,15.58
2023-03-24T17:04:31.120Z,15.52
2023-03-24T17:08:34.052Z,15.46
2023-03-24T17:12:37.535Z,15.46
2023-03-24T17:16:43.546Z,15.45
2023-03-24T17:20:48.501Z,15.41
2023-03-24T17:24:57.578Z,15.40
2023-03-24T17:29:00.550Z,15.34
2023-03-24T17:33:03.736Z,15.26
2023-03-24T17:37:08.274Z,15.24
2023-03-24T17:41:11.513Z,15.21
2023-03-24T17:45:16.095Z,15.16
2023-03-24T17:49:19.097Z,15.08
2023-03-24T17:53:25.655Z,15.07
2023-03-24T17:57:28.766Z,15.05
2023-03-24T18:01:35.042Z,15.02
2023-03-24T18:05:38.349Z,14.99
2023-03-24T18:09:42.668Z,15.00
2023-03-24T18:13:46.146Z,14.98
2023-03-24T18:17:49.190Z,14.98
2023-03-24T18:21:52.293Z,14.96
2023-03-24T18:26:02.229Z,14.90
2023-03-24T18:30:06.823Z,14.87
2023-03-24T18:34:09.901Z,14.79
2023-03-24T18:38:15.220Z,14.66
2023-03-24T18:42:19.718Z,14.56
2023-03-24T18:46:23.535Z,14.54
2023-03-24T18:50:26.595Z,14.49
2023-03-24T18:54:29.661Z,14.44
2023-03-24T18:58:34.976Z,14.41
2023-03-24T19:02:38.087Z,14.42
2023-03-24T19:06:42.495Z,14.40
2023-03-24T19:10:46.202Z,14.35
2023-03-24T19:14:50.754Z,14.32
2023-03-24T19:18:54.055Z,14.31
2023-03-24T19:22:57.031Z,14.28
2023-03-24T19:27:00.853Z,14.16
2023-03-24T19:31:10.718Z,14.09
2023-03-24T19:35:14.228Z,14.01
2023-03-24T19:39:17.457Z,13.95
2023-03-24T19:43:20.728Z,13.92
2023-03-24T19:47:25.069Z,13.95
2023-03-24T19:51:28.113Z,13.98
2023-03-24T19:55:31.486Z,13.98
2023-03-24T19:59:35.343Z,13.96
2023-03-24T20:03:40.089Z,13.94
2023-03-24T20:07:43.248Z,13.88
2023-03-24T20:11:47.558Z,13.79
2023-03-24T20:15:50.937Z,13.75
2023-03-24T20:20:04.347Z,13.72
2023-03-24T20:24:08.009Z,13.67
2023-03-24T20:28:10.980Z,13.65
2023-03-24T20:32:14.418Z,13.63
2023-03-24T20:36:19.112Z,13.60
2023-03-24T20:40:22.263Z,13.57
2023-03-24T20:44:25.543Z,13.53
2023-03-24T20:48:29.534Z,13.48
2023-03-24T20:52:34.969Z,13.45
2023-03-24T20:56:38.672Z,13.43
2023-03-24T21:00:46.204Z,13.41
2023-03-24T21:04:49.691Z,13.33
2023-03-24T21:08:54.965Z,13.25
2023-03-24T21:12:58.014Z,13.23
2023-03-24T21:17:01.414Z,13.23
2023-03-24T21:21:04.875Z,13.22
2023-03-24T21:25:09.752Z,13.19
2023-03-24T21:29:13.150Z,13.13
2023-03-24T21:33:16.805Z,13.09
2023-03-24T21:37:19.875Z,13.02
2023-03-24T21:41:24.330Z,12.98
2023-03-24T21:45:27.695Z,12.95
2023-03-24T21:49:30.664Z,12.93
2023-03-24T21:53:35.028Z,12.92
2023-03-24T21:57:39.453Z,12.90
2023-03-24T22:01:42.791Z,12.88
2023-03-24T22:05:45.949Z,12.87
2023-03-24T22:09:50.801Z,12.88
2023-03-24T22:13:55.188Z,12.89
2023-03-24T22:17:58.745Z,12.91
2023-03-24T22:22:02.186Z,12.94
2023-03-24T22:26:07.554Z,12.97
2023-03-24T22:30:14.685Z,12.95
2023-03-24T22:34:17.781Z,12.93
2023-03-24T22:38:20.818Z,12.90
2023-03-24T22:42:23.940Z,12.85
2023-03-24T22:46:28.357Z,12.81
2023-03-24T22:50:31.452Z,12.79
2023-03-24T22:54:34.630Z,12.79
2023-03-24T22:58:37.682Z,12.78
2023-03-24T23:02:42.451Z,12.83
2023-03-24T23:06:46.172Z,12.84
2023-03-24T23:10:49.277Z,12.84
2023-03-24T23:14:54.427Z,12.84
2023-03-24T23:18:58.928Z,12.82
2023-03-24T23:23:03.748Z,12.81
2023-03-24T23:27:08.105Z,12.77
2023-03-24T23:31:13.556Z,12.76
2023-03-24T23:35:24.822Z,12.75
2023-03-24T23:39:27.952Z,12.72
2023-03-24T23:43:30.917Z,12.67
2023-03-24T23:47:34.683Z,12.61
2023-03-24T23:51:39.070Z,12.58
2023-03-24T23:55:42.345Z,12.52
2023-03-24T23:59:45.973Z,12.49
